sensor_id;sensor_type;location;lat;lon;timestamp;P1;durP1;ratioP1;P2;durP2;ratioP2
24787;SDS011;12883;52.662;5.196;2023-06-22T00:00:52;49.75;;;49.45;;
24787;SDS011;12883;52.662;5.196;2023-06-22T00:03:18;48.95;;;48.65;;
24787;SDS011;12883;52.662;5.196;2023-06-22T00:05:46;48.28;;;47.97;;
24787;SDS011;12883;52.662;5.196;2023-06-22T00:08:11;50.95;;;50.65;;
24787;SDS011;12883;52.662;5.196;2023-06-22T00:10:37;51.08;;;50.78;;
24787;SDS011;12883;52.662;5.196;2023-06-22T00:13:03;50.20;;;49.90;;
24787;SDS011;12883;52.662;5.196;2023-06-22T00:15:29;49.15;;;48.85;;
24787;SDS011;12883;52.662;5.196;2023-06-22T00:17:54;50.15;;;49.85;;
24787;SDS011;12883;52.662;5.196;2023-06-22T00:20:19;52.95;;;52.65;;
24787;SDS011;12883;52.662;5.196;2023-06-22T00:22:45;49.63;;;49.33;;
24787;SDS011;12883;52.662;5.196;2023-06-22T00:25:11;48.72;;;48.42;;
24787;SDS011;12883;52.662;5.196;2023-06-22T00:27:36;50.20;;;49.90;;
24787;SDS011;12883;52.662;5.196;2023-06-22T00:30:02;50.83;;;50.53;;
24787;SDS011;12883;52.662;5.196;2023-06-22T00:32:28;52.22;;;51.92;;
24787;SDS011;12883;52.662;5.196;2023-06-22T00:34:53;52.47;;;52.17;;
24787;SDS011;12883;52.662;5.196;2023-06-22T00:37:19;53.97;;;53.67;;
24787;SDS011;12883;52.662;5.196;2023-06-22T00:39:44;53.45;;;53.15;;
24787;SDS011;12883;52.662;5.196;2023-06-22T00:42:09;53.70;;;53.40;;
24787;SDS011;12883;52.662;5.196;2023-06-22T00:44:35;54.80;;;54.50;;
24787;SDS011;12883;52.662;5.196;2023-06-22T00:47:01;50.10;;;49.80;;
24787;SDS011;12883;52.662;5.196;2023-06-22T00:49:28;51.42;;;51.13;;
24787;SDS011;12883;52.662;5.196;2023-06-22T00:51:54;50.90;;;50.60;;
24787;SDS011;12883;52.662;5.196;2023-06-22T00:54:20;51.65;;;51.35;;
24787;SDS011;12883;52.662;5.196;2023-06-22T00:56:55;54.65;;;54.25;;
24787;SDS011;12883;52.662;5.196;2023-06-22T00:59:23;53.35;;;53.05;;
24787;SDS011;12883;52.662;5.196;2023-06-22T01:01:49;51.97;;;51.67;;
24787;SDS011;12883;52.662;5.196;2023-06-22T01:04:14;54.15;;;53.85;;
24787;SDS011;12883;52.662;5.196;2023-06-22T01:06:58;57.65;;;57.35;;
24787;SDS011;12883;52.662;5.196;2023-06-22T01:09:49;53.40;;;53.10;;
24787;SDS011;12883;52.662;5.196;2023-06-22T01:12:22;54.92;;;54.63;;
24787;SDS011;12883;52.662;5.196;2023-06-22T01:14:50;53.40;;;53.10;;
24787;SDS011;12883;52.662;5.196;2023-06-22T01:17:51;54.88;;;54.58;;
24787;SDS011;12883;52.662;5.196;2023-06-22T01:20:17;53.45;;;53.15;;
24787;SDS011;12883;52.662;5.196;2023-06-22T01:22:50;56.42;;;56.10;;
24787;SDS011;12883;52.662;5.196;2023-06-22T01:25:20;56.70;;;56.40;;
24787;SDS011;12883;52.662;5.196;2023-06-22T01:30:40;54.35;;;54.05;;
24787;SDS011;12883;52.662;5.196;2023-06-22T01:33:09;52.60;;;52.30;;
24787;SDS011;12883;52.662;5.196;2023-06-22T01:35:38;54.75;;;54.42;;
24787;SDS011;12883;52.662;5.196;2023-06-22T01:38:03;56.45;;;56.05;;
24787;SDS011;12883;52.662;5.196;2023-06-22T01:40:30;53.22;;;52.92;;
24787;SDS011;12883;52.662;5.196;2023-06-22T01:42:59;52.00;;;51.70;;
24787;SDS011;12883;52.662;5.196;2023-06-22T01:45:26;52.00;;;51.70;;
24787;SDS011;12883;52.662;5.196;2023-06-22T01:47:52;50.05;;;49.75;;
24787;SDS011;12883;52.662;5.196;2023-06-22T01:50:18;50.10;;;49.80;;
24787;SDS011;12883;52.662;5.196;2023-06-22T01:52:44;48.22;;;47.92;;
24787;SDS011;12883;52.662;5.196;2023-06-22T01:55:09;49.08;;;48.78;;
24787;SDS011;12883;52.662;5.196;2023-06-22T01:57:35;50.25;;;49.95;;
24787;SDS011;12883;52.662;5.196;2023-06-22T02:00:02;48.75;;;48.45;;
24787;SDS011;12883;52.662;5.196;2023-06-22T02:02:40;49.20;;;48.90;;
24787;SDS011;12883;52.662;5.196;2023-06-22T02:05:10;47.85;;;47.55;;
24787;SDS011;12883;52.662;5.196;2023-06-22T02:07:41;52.20;;;51.90;;
24787;SDS011;12883;52.662;5.196;2023-06-22T02:10:11;50.97;;;50.67;;
24787;SDS011;12883;52.662;5.196;2023-06-22T02:12:41;51.22;;;50.92;;
24787;SDS011;12883;52.662;5.196;2023-06-22T02:15:08;52.63;;;52.33;;
24787;SDS011;12883;52.662;5.196;2023-06-22T02:17:35;51.08;;;50.78;;
24787;SDS011;12883;52.662;5.196;2023-06-22T02:20:02;50.72;;;50.42;;
24787;SDS011;12883;52.662;5.196;2023-06-22T02:22:33;46.55;;;46.25;;
24787;SDS011;12883;52.662;5.196;2023-06-22T02:24:59;48.55;;;48.25;;
24787;SDS011;12883;52.662;5.196;2023-06-22T02:27:25;49.45;;;49.15;;
24787;SDS011;12883;52.662;5.196;2023-06-22T02:29:50;47.22;;;46.92;;
24787;SDS011;12883;52.662;5.196;2023-06-22T02:32:15;45.03;;;44.72;;
24787;SDS011;12883;52.662;5.196;2023-06-22T02:34:42;44.47;;;44.17;;
24787;SDS011;12883;52.662;5.196;2023-06-22T02:37:12;45.63;;;45.33;;
24787;SDS011;12883;52.662;5.196;2023-06-22T02:39:46;47.30;;;47.00;;
24787;SDS011;12883;52.662;5.196;2023-06-22T02:42:11;44.47;;;44.17;;
24787;SDS011;12883;52.662;5.196;2023-06-22T02:44:37;44.83;;;44.53;;
24787;SDS011;12883;52.662;5.196;2023-06-22T02:47:02;45.38;;;45.08;;
24787;SDS011;12883;52.662;5.196;2023-06-22T02:49:28;45.92;;;45.63;;
24787;SDS011;12883;52.662;5.196;2023-06-22T02:51:53;43.78;;;43.47;;
24787;SDS011;12883;52.662;5.196;2023-06-22T02:54:20;43.65;;;43.35;;
24787;SDS011;12883;52.662;5.196;2023-06-22T02:56:45;41.45;;;41.25;;
24787;SDS011;12883;52.662;5.196;2023-06-22T02:59:11;44.05;;;43.75;;
24787;SDS011;12883;52.662;5.196;2023-06-22T03:01:36;43.72;;;43.42;;
24787;SDS011;12883;52.662;5.196;2023-06-22T03:04:08;44.55;;;44.25;;
24787;SDS011;12883;52.662;5.196;2023-06-22T03:06:34;43.00;;;42.80;;
24787;SDS011;12883;52.662;5.196;2023-06-22T03:09:01;40.88;;;40.60;;
24787;SDS011;12883;52.662;5.196;2023-06-22T03:11:29;42.55;;;42.30;;
24787;SDS011;12883;52.662;5.196;2023-06-22T03:13:54;39.53;;;39.33;;
24787;SDS011;12883;52.662;5.196;2023-06-22T03:16:20;43.15;;;42.85;;
24787;SDS011;12883;52.662;5.196;2023-06-22T03:18:45;41.53;;;41.22;;
24787;SDS011;12883;52.662;5.196;2023-06-22T03:21:11;41.47;;;41.25;;
24787;SDS011;12883;52.662;5.196;2023-06-22T03:23:36;42.72;;;42.53;;
24787;SDS011;12883;52.662;5.196;2023-06-22T03:26:02;40.78;;;40.58;;
24787;SDS011;12883;52.662;5.196;2023-06-22T03:28:29;42.70;;;42.50;;
24787;SDS011;12883;52.662;5.196;2023-06-22T03:30:54;41.40;;;41.20;;
24787;SDS011;12883;52.662;5.196;2023-06-22T03:33:22;41.80;;;41.60;;
24787;SDS011;12883;52.662;5.196;2023-06-22T03:35:47;40.50;;;40.30;;
24787;SDS011;12883;52.662;5.196;2023-06-22T03:38:12;40.58;;;40.38;;
24787;SDS011;12883;52.662;5.196;2023-06-22T03:40:38;42.60;;;42.30;;
24787;SDS011;12883;52.662;5.196;2023-06-22T03:43:03;40.72;;;40.53;;
24787;SDS011;12883;52.662;5.196;2023-06-22T03:45:28;38.92;;;38.72;;
24787;SDS011;12883;52.662;5.196;2023-06-22T03:47:54;40.20;;;40.00;;
24787;SDS011;12883;52.662;5.196;2023-06-22T03:50:19;40.55;;;40.35;;
24787;SDS011;12883;52.662;5.196;2023-06-22T03:52:45;39.75;;;39.55;;
24787;SDS011;12883;52.662;5.196;2023-06-22T03:55:11;39.38;;;39.17;;
24787;SDS011;12883;52.662;5.196;2023-06-22T03:57:36;41.42;;;41.22;;
24787;SDS011;12883;52.662;5.196;2023-06-22T04:00:02;43.08;;;42.88;;
24787;SDS011;12883;52.662;5.196;2023-06-22T04:02:30;39.88;;;39.67;;
24787;SDS011;12883;52.662;5.196;2023-06-22T04:04:55;41.38;;;41.17;;
24787;SDS011;12883;52.662;5.196;2023-06-22T04:07:21;39.83;;;39.63;;
24787;SDS011;12883;52.662;5.196;2023-06-22T04:09:46;39.70;;;39.50;;
24787;SDS011;12883;52.662;5.196;2023-06-22T04:12:11;39.63;;;39.42;;
24787;SDS011;12883;52.662;5.196;2023-06-22T04:14:37;39.40;;;39.20;;
24787;SDS011;12883;52.662;5.196;2023-06-22T04:17:02;39.72;;;39.53;;
24787;SDS011;12883;52.662;5.196;2023-06-22T04:19:28;42.97;;;42.78;;
24787;SDS011;12883;52.662;5.196;2023-06-22T04:21:53;42.25;;;42.05;;
24787;SDS011;12883;52.662;5.196;2023-06-22T04:24:18;45.42;;;45.13;;
24787;SDS011;12883;52.662;5.196;2023-06-22T04:26:43;42.45;;;42.25;;
24787;SDS011;12883;52.662;5.196;2023-06-22T04:29:10;45.88;;;45.58;;
24787;SDS011;12883;52.662;5.196;2023-06-22T04:31:35;45.03;;;44.72;;
24787;SDS011;12883;52.662;5.196;2023-06-22T04:34:02;43.75;;;43.45;;
24787;SDS011;12883;52.662;5.196;2023-06-22T04:36:33;47.70;;;47.40;;
24787;SDS011;12883;52.662;5.196;2023-06-22T04:39:03;50.67;;;50.38;;
24787;SDS011;12883;52.662;5.196;2023-06-22T04:41:34;49.28;;;48.97;;
24787;SDS011;12883;52.662;5.196;2023-06-22T04:44:12;52.33;;;52.03;;
24787;SDS011;12883;52.662;5.196;2023-06-22T04:46:38;48.83;;;48.53;;
24787;SDS011;12883;52.662;5.196;2023-06-22T04:49:07;48.40;;;48.10;;
24787;SDS011;12883;52.662;5.196;2023-06-22T04:51:43;45.58;;;45.28;;
24787;SDS011;12883;52.662;5.196;2023-06-22T04:54:09;46.05;;;45.75;;
24787;SDS011;12883;52.662;5.196;2023-06-22T04:56:35;51.08;;;50.78;;
24787;SDS011;12883;52.662;5.196;2023-06-22T04:59:00;52.42;;;52.13;;
24787;SDS011;12883;52.662;5.196;2023-06-22T05:01:26;53.50;;;53.20;;
24787;SDS011;12883;52.662;5.196;2023-06-22T05:03:51;55.17;;;54.88;;
24787;SDS011;12883;52.662;5.196;2023-06-22T05:06:23;60.50;;;60.10;;
24787;SDS011;12883;52.662;5.196;2023-06-22T05:08:55;66.53;;;66.13;;
24787;SDS011;12883;52.662;5.196;2023-06-22T05:11:25;66.57;;;66.18;;
24787;SDS011;12883;52.662;5.196;2023-06-22T05:13:52;68.63;;;68.22;;
24787;SDS011;12883;52.662;5.196;2023-06-22T05:16:17;68.05;;;67.65;;
24787;SDS011;12883;52.662;5.196;2023-06-22T05:18:52;69.18;;;68.78;;
24787;SDS011;12883;52.662;5.196;2023-06-22T05:21:21;69.88;;;69.43;;
24787;SDS011;12883;52.662;5.196;2023-06-22T05:23:48;69.22;;;68.82;;
24787;SDS011;12883;52.662;5.196;2023-06-22T05:26:13;66.82;;;66.43;;
24787;SDS011;12883;52.662;5.196;2023-06-22T05:28:39;63.92;;;63.53;;
24787;SDS011;12883;52.662;5.196;2023-06-22T05:31:04;61.95;;;61.55;;
24787;SDS011;12883;52.662;5.196;2023-06-22T05:33:29;59.63;;;59.22;;
24787;SDS011;12883;52.662;5.196;2023-06-22T05:35:55;60.05;;;59.65;;
24787;SDS011;12883;52.662;5.196;2023-06-22T05:38:20;54.70;;;54.40;;
24787;SDS011;12883;52.662;5.196;2023-06-22T05:40:45;52.03;;;51.72;;
24787;SDS011;12883;52.662;5.196;2023-06-22T05:43:11;50.72;;;50.42;;
24787;SDS011;12883;52.662;5.196;2023-06-22T05:45:36;53.47;;;53.17;;
24787;SDS011;12883;52.662;5.196;2023-06-22T05:48:01;53.25;;;52.95;;
24787;SDS011;12883;52.662;5.196;2023-06-22T05:50:27;51.42;;;51.13;;
24787;SDS011;12883;52.662;5.196;2023-06-22T05:52:52;46.88;;;46.60;;
24787;SDS011;12883;52.662;5.196;2023-06-22T05:55:17;44.28;;;44.08;;
24787;SDS011;12883;52.662;5.196;2023-06-22T05:57:44;43.75;;;43.55;;
24787;SDS011;12883;52.662;5.196;2023-06-22T06:00:09;40.60;;;40.40;;
24787;SDS011;12883;52.662;5.196;2023-06-22T06:02:36;33.78;;;33.58;;
24787;SDS011;12883;52.662;5.196;2023-06-22T06:05:02;31.02;;;30.92;;
24787;SDS011;12883;52.662;5.196;2023-06-22T06:07:28;27.40;;;27.30;;
24787;SDS011;12883;52.662;5.196;2023-06-22T06:09:54;26.40;;;26.30;;
24787;SDS011;12883;52.662;5.196;2023-06-22T06:12:19;25.63;;;25.52;;
24787;SDS011;12883;52.662;5.196;2023-06-22T06:14:44;24.02;;;23.92;;
24787;SDS011;12883;52.662;5.196;2023-06-22T06:17:10;23.52;;;23.42;;
24787;SDS011;12883;52.662;5.196;2023-06-22T06:19:35;23.85;;;23.75;;
24787;SDS011;12883;52.662;5.196;2023-06-22T06:22:01;24.15;;;24.05;;
24787;SDS011;12883;52.662;5.196;2023-06-22T06:24:26;23.90;;;23.80;;
24787;SDS011;12883;52.662;5.196;2023-06-22T06:26:52;22.08;;;21.98;;
24787;SDS011;12883;52.662;5.196;2023-06-22T06:29:17;23.15;;;23.05;;
24787;SDS011;12883;52.662;5.196;2023-06-22T06:31:42;22.85;;;22.75;;
24787;SDS011;12883;52.662;5.196;2023-06-22T06:34:07;23.95;;;23.85;;
24787;SDS011;12883;52.662;5.196;2023-06-22T06:36:33;22.73;;;22.63;;
24787;SDS011;12883;52.662;5.196;2023-06-22T06:38:58;24.23;;;24.13;;
24787;SDS011;12883;52.662;5.196;2023-06-22T06:41:23;21.30;;;21.20;;
24787;SDS011;12883;52.662;5.196;2023-06-22T06:43:49;23.20;;;23.10;;
24787;SDS011;12883;52.662;5.196;2023-06-22T06:46:14;23.45;;;23.35;;
24787;SDS011;12883;52.662;5.196;2023-06-22T06:48:39;23.55;;;23.45;;
24787;SDS011;12883;52.662;5.196;2023-06-22T06:51:05;22.38;;;22.27;;
24787;SDS011;12883;52.662;5.196;2023-06-22T06:53:34;22.00;;;21.90;;
24787;SDS011;12883;52.662;5.196;2023-06-22T06:55:59;23.13;;;23.02;;
24787;SDS011;12883;52.662;5.196;2023-06-22T06:58:24;23.35;;;23.25;;
24787;SDS011;12883;52.662;5.196;2023-06-22T07:00:50;23.08;;;22.98;;
24787;SDS011;12883;52.662;5.196;2023-06-22T07:03:15;23.23;;;23.13;;
24787;SDS011;12883;52.662;5.196;2023-06-22T07:05:40;22.80;;;22.70;;
24787;SDS011;12883;52.662;5.196;2023-06-22T07:08:06;22.98;;;22.88;;
24787;SDS011;12883;52.662;5.196;2023-06-22T07:10:31;23.98;;;23.88;;
24787;SDS011;12883;52.662;5.196;2023-06-22T07:12:56;25.42;;;25.33;;
24787;SDS011;12883;52.662;5.196;2023-06-22T07:15:22;21.58;;;21.48;;
24787;SDS011;12883;52.662;5.196;2023-06-22T07:17:47;24.08;;;23.98;;
24787;SDS011;12883;52.662;5.196;2023-06-22T07:20:12;20.35;;;20.25;;
24787;SDS011;12883;52.662;5.196;2023-06-22T07:22:38;19.63;;;19.52;;
24787;SDS011;12883;52.662;5.196;2023-06-22T07:25:05;16.60;;;16.58;;
24787;SDS011;12883;52.662;5.196;2023-06-22T07:28:07;15.45;;;15.35;;
24787;SDS011;12883;52.662;5.196;2023-06-22T07:30:27;15.43;;;15.43;;
24787;SDS011;12883;52.662;5.196;2023-06-22T07:32:53;14.90;;;14.90;;
24787;SDS011;12883;52.662;5.196;2023-06-22T07:35:19;15.32;;;15.32;;
24787;SDS011;12883;52.662;5.196;2023-06-22T07:37:44;15.25;;;15.25;;
24787;SDS011;12883;52.662;5.196;2023-06-22T07:40:10;13.90;;;13.90;;
24787;SDS011;12883;52.662;5.196;2023-06-22T07:42:36;14.70;;;14.60;;
24787;SDS011;12883;52.662;5.196;2023-06-22T07:45:02;13.35;;;13.35;;
24787;SDS011;12883;52.662;5.196;2023-06-22T07:47:29;14.35;;;14.35;;
24787;SDS011;12883;52.662;5.196;2023-06-22T07:49:55;15.02;;;15.02;;
24787;SDS011;12883;52.662;5.196;2023-06-22T07:52:23;13.68;;;13.68;;
24787;SDS011;12883;52.662;5.196;2023-06-22T07:54:48;13.95;;;13.95;;
24787;SDS011;12883;52.662;5.196;2023-06-22T07:57:14;14.20;;;14.20;;
24787;SDS011;12883;52.662;5.196;2023-06-22T07:59:39;14.48;;;14.48;;
24787;SDS011;12883;52.662;5.196;2023-06-22T08:02:05;15.43;;;15.43;;
24787;SDS011;12883;52.662;5.196;2023-06-22T08:04:30;16.27;;;16.27;;
24787;SDS011;12883;52.662;5.196;2023-06-22T08:06:59;13.48;;;13.48;;
24787;SDS011;12883;52.662;5.196;2023-06-22T08:09:25;13.90;;;13.90;;
24787;SDS011;12883;52.662;5.196;2023-06-22T08:11:50;13.45;;;13.45;;
24787;SDS011;12883;52.662;5.196;2023-06-22T08:14:15;14.35;;;14.35;;
24787;SDS011;12883;52.662;5.196;2023-06-22T08:16:41;13.18;;;13.18;;
24787;SDS011;12883;52.662;5.196;2023-06-22T08:19:07;14.73;;;14.73;;
24787;SDS011;12883;52.662;5.196;2023-06-22T08:21:32;13.25;;;13.25;;
24787;SDS011;12883;52.662;5.196;2023-06-22T08:23:57;13.43;;;13.43;;
24787;SDS011;12883;52.662;5.196;2023-06-22T08:26:23;14.07;;;14.07;;
24787;SDS011;12883;52.662;5.196;2023-06-22T08:28:48;13.57;;;13.57;;
24787;SDS011;12883;52.662;5.196;2023-06-22T08:31:13;15.02;;;15.02;;
24787;SDS011;12883;52.662;5.196;2023-06-22T08:33:39;15.65;;;15.55;;
24787;SDS011;12883;52.662;5.196;2023-06-22T08:36:05;13.65;;;13.65;;
24787;SDS011;12883;52.662;5.196;2023-06-22T08:38:31;15.30;;;15.30;;
24787;SDS011;12883;52.662;5.196;2023-06-22T08:40:56;14.45;;;14.45;;
24787;SDS011;12883;52.662;5.196;2023-06-22T08:43:22;15.27;;;15.27;;
24787;SDS011;12883;52.662;5.196;2023-06-22T08:45:47;16.63;;;16.60;;
24787;SDS011;12883;52.662;5.196;2023-06-22T08:48:13;13.90;;;13.90;;
24787;SDS011;12883;52.662;5.196;2023-06-22T08:50:38;16.15;;;16.15;;
24787;SDS011;12883;52.662;5.196;2023-06-22T08:53:05;15.38;;;15.38;;
24787;SDS011;12883;52.662;5.196;2023-06-22T08:55:31;16.02;;;16.02;;
24787;SDS011;12883;52.662;5.196;2023-06-22T08:57:56;15.05;;;15.05;;
24787;SDS011;12883;52.662;5.196;2023-06-22T09:00:22;16.73;;;16.63;;
24787;SDS011;12883;52.662;5.196;2023-06-22T09:02:47;15.02;;;15.02;;
24787;SDS011;12883;52.662;5.196;2023-06-22T09:05:13;16.95;;;16.85;;
24787;SDS011;12883;52.662;5.196;2023-06-22T09:07:39;17.85;;;17.75;;
24787;SDS011;12883;52.662;5.196;2023-06-22T09:10:05;16.15;;;16.15;;
24787;SDS011;12883;52.662;5.196;2023-06-22T09:12:30;17.80;;;17.80;;
24787;SDS011;12883;52.662;5.196;2023-06-22T09:14:57;17.75;;;17.65;;
24787;SDS011;12883;52.662;5.196;2023-06-22T09:17:25;18.10;;;18.08;;
24787;SDS011;12883;52.662;5.196;2023-06-22T09:19:50;18.08;;;18.08;;
24787;SDS011;12883;52.662;5.196;2023-06-22T09:22:16;18.17;;;18.08;;
24787;SDS011;12883;52.662;5.196;2023-06-22T09:24:41;19.30;;;19.20;;
24787;SDS011;12883;52.662;5.196;2023-06-22T09:27:06;18.40;;;18.35;;
24787;SDS011;12883;52.662;5.196;2023-06-22T09:29:32;19.33;;;19.23;;
24787;SDS011;12883;52.662;5.196;2023-06-22T09:31:58;19.17;;;19.17;;
24787;SDS011;12883;52.662;5.196;2023-06-22T09:34:24;17.88;;;17.88;;
24787;SDS011;12883;52.662;5.196;2023-06-22T09:36:50;18.90;;;18.80;;
24787;SDS011;12883;52.662;5.196;2023-06-22T09:39:15;19.17;;;19.08;;
24787;SDS011;12883;52.662;5.196;2023-06-22T09:41:41;19.30;;;19.20;;
24787;SDS011;12883;52.662;5.196;2023-06-22T09:44:07;17.83;;;17.80;;
24787;SDS011;12883;52.662;5.196;2023-06-22T09:46:32;18.13;;;18.02;;
24787;SDS011;12883;52.662;5.196;2023-06-22T09:48:57;17.15;;;17.05;;
24787;SDS011;12883;52.662;5.196;2023-06-22T09:51:23;15.55;;;15.50;;
24787;SDS011;12883;52.662;5.196;2023-06-22T09:53:52;18.83;;;18.73;;
24787;SDS011;12883;52.662;5.196;2023-06-22T09:56:19;17.02;;;16.92;;
24787;SDS011;12883;52.662;5.196;2023-06-22T09:58:45;17.10;;;17.10;;
24787;SDS011;12883;52.662;5.196;2023-06-22T10:01:11;17.50;;;17.40;;
24787;SDS011;12883;52.662;5.196;2023-06-22T10:03:39;15.60;;;15.60;;
24787;SDS011;12883;52.662;5.196;2023-06-22T10:06:04;18.48;;;18.48;;
24787;SDS011;12883;52.662;5.196;2023-06-22T10:08:30;15.52;;;15.52;;
24787;SDS011;12883;52.662;5.196;2023-06-22T10:10:55;17.88;;;17.77;;
24787;SDS011;12883;52.662;5.196;2023-06-22T10:13:20;15.98;;;15.98;;
24787;SDS011;12883;52.662;5.196;2023-06-22T10:15:46;16.42;;;16.33;;
24787;SDS011;12883;52.662;5.196;2023-06-22T10:18:17;15.98;;;15.88;;
24787;SDS011;12883;52.662;5.196;2023-06-22T10:20:43;16.65;;;16.65;;
24787;SDS011;12883;52.662;5.196;2023-06-22T10:23:10;16.13;;;16.13;;
24787;SDS011;12883;52.662;5.196;2023-06-22T10:25:35;17.65;;;17.55;;
24787;SDS011;12883;52.662;5.196;2023-06-22T10:28:00;16.90;;;16.80;;
24787;SDS011;12883;52.662;5.196;2023-06-22T10:30:26;14.23;;;14.23;;
24787;SDS011;12883;52.662;5.196;2023-06-22T10:32:51;16.80;;;16.70;;
24787;SDS011;12883;52.662;5.196;2023-06-22T10:35:16;16.15;;;16.05;;
24787;SDS011;12883;52.662;5.196;2023-06-22T10:37:43;15.15;;;15.15;;
24787;SDS011;12883;52.662;5.196;2023-06-22T10:40:09;13.68;;;13.68;;
24787;SDS011;12883;52.662;5.196;2023-06-22T10:42:35;13.77;;;13.77;;
24787;SDS011;12883;52.662;5.196;2023-06-22T10:45:01;13.35;;;13.35;;
24787;SDS011;12883;52.662;5.196;2023-06-22T10:47:26;13.77;;;13.77;;
24787;SDS011;12883;52.662;5.196;2023-06-22T10:49:51;13.07;;;13.07;;
24787;SDS011;12883;52.662;5.196;2023-06-22T10:52:17;13.52;;;13.52;;
24787;SDS011;12883;52.662;5.196;2023-06-22T10:54:42;15.07;;;15.07;;
24787;SDS011;12883;52.662;5.196;2023-06-22T10:57:07;13.70;;;13.70;;
24787;SDS011;12883;52.662;5.196;2023-06-22T10:59:32;14.77;;;14.77;;
24787;SDS011;12883;52.662;5.196;2023-06-22T11:01:58;13.13;;;13.13;;
24787;SDS011;12883;52.662;5.196;2023-06-22T11:04:24;13.35;;;13.35;;
24787;SDS011;12883;52.662;5.196;2023-06-22T11:06:49;13.45;;;13.45;;
24787;SDS011;12883;52.662;5.196;2023-06-22T11:09:15;12.80;;;12.80;;
24787;SDS011;12883;52.662;5.196;2023-06-22T11:11:49;13.27;;;13.27;;
24787;SDS011;12883;52.662;5.196;2023-06-22T11:14:18;13.85;;;13.85;;
24787;SDS011;12883;52.662;5.196;2023-06-22T11:16:44;13.68;;;13.68;;
24787;SDS011;12883;52.662;5.196;2023-06-22T11:19:09;11.30;;;11.30;;
24787;SDS011;12883;52.662;5.196;2023-06-22T11:21:34;11.05;;;11.05;;
24787;SDS011;12883;52.662;5.196;2023-06-22T11:24:00;11.75;;;11.75;;
24787;SDS011;12883;52.662;5.196;2023-06-22T11:26:25;13.48;;;13.48;;
24787;SDS011;12883;52.662;5.196;2023-06-22T11:28:54;11.90;;;11.90;;
24787;SDS011;12883;52.662;5.196;2023-06-22T11:31:20;10.82;;;10.82;;
24787;SDS011;12883;52.662;5.196;2023-06-22T11:33:45;12.55;;;12.55;;
24787;SDS011;12883;52.662;5.196;2023-06-22T11:36:12;12.27;;;12.27;;
24787;SDS011;12883;52.662;5.196;2023-06-22T11:38:37;13.20;;;13.20;;
24787;SDS011;12883;52.662;5.196;2023-06-22T11:41:05;11.43;;;11.43;;
24787;SDS011;12883;52.662;5.196;2023-06-22T11:43:31;11.40;;;11.40;;
24787;SDS011;12883;52.662;5.196;2023-06-22T11:45:56;11.68;;;11.68;;
24787;SDS011;12883;52.662;5.196;2023-06-22T11:48:23;10.88;;;10.77;;
24787;SDS011;12883;52.662;5.196;2023-06-22T11:50:49;11.85;;;11.85;;
24787;SDS011;12883;52.662;5.196;2023-06-22T11:53:15;12.13;;;12.13;;
24787;SDS011;12883;52.662;5.196;2023-06-22T11:55:41;12.77;;;12.77;;
24787;SDS011;12883;52.662;5.196;2023-06-22T11:58:07;11.90;;;11.90;;
24787;SDS011;12883;52.662;5.196;2023-06-22T12:00:33;12.43;;;12.43;;
24787;SDS011;12883;52.662;5.196;2023-06-22T12:02:58;10.63;;;10.63;;
24787;SDS011;12883;52.662;5.196;2023-06-22T12:05:24;11.50;;;11.50;;
24787;SDS011;12883;52.662;5.196;2023-06-22T12:07:49;10.70;;;10.70;;
24787;SDS011;12883;52.662;5.196;2023-06-22T12:10:15;10.20;;;10.20;;
24787;SDS011;12883;52.662;5.196;2023-06-22T12:12:41;10.15;;;10.15;;
24787;SDS011;12883;52.662;5.196;2023-06-22T12:15:06;10.30;;;10.30;;
24787;SDS011;12883;52.662;5.196;2023-06-22T12:17:32;9.48;;;9.48;;
24787;SDS011;12883;52.662;5.196;2023-06-22T12:19:59;9.63;;;9.63;;
24787;SDS011;12883;52.662;5.196;2023-06-22T12:22:24;9.50;;;9.50;;
24787;SDS011;12883;52.662;5.196;2023-06-22T12:24:49;9.43;;;9.43;;
24787;SDS011;12883;52.662;5.196;2023-06-22T12:27:15;10.50;;;10.50;;
24787;SDS011;12883;52.662;5.196;2023-06-22T12:29:43;10.23;;;10.23;;
24787;SDS011;12883;52.662;5.196;2023-06-22T12:32:08;9.15;;;9.15;;
24787;SDS011;12883;52.662;5.196;2023-06-22T12:34:34;9.27;;;9.27;;
24787;SDS011;12883;52.662;5.196;2023-06-22T12:36:59;9.02;;;9.02;;
24787;SDS011;12883;52.662;5.196;2023-06-22T12:39:24;8.55;;;8.55;;
24787;SDS011;12883;52.662;5.196;2023-06-22T12:41:50;8.80;;;8.80;;
24787;SDS011;12883;52.662;5.196;2023-06-22T12:44:15;8.23;;;8.23;;
24787;SDS011;12883;52.662;5.196;2023-06-22T12:46:40;8.07;;;8.07;;
24787;SDS011;12883;52.662;5.196;2023-06-22T12:49:05;8.13;;;8.13;;
24787;SDS011;12883;52.662;5.196;2023-06-22T12:51:31;7.90;;;7.90;;
24787;SDS011;12883;52.662;5.196;2023-06-22T12:53:56;6.57;;;6.57;;
24787;SDS011;12883;52.662;5.196;2023-06-22T12:56:22;7.80;;;7.80;;
24787;SDS011;12883;52.662;5.196;2023-06-22T12:58:47;6.95;;;6.95;;
24787;SDS011;12883;52.662;5.196;2023-06-22T13:01:13;6.03;;;6.03;;
24787;SDS011;12883;52.662;5.196;2023-06-22T13:03:38;7.90;;;7.90;;
24787;SDS011;12883;52.662;5.196;2023-06-22T13:06:04;7.30;;;7.30;;
24787;SDS011;12883;52.662;5.196;2023-06-22T13:08:29;7.38;;;7.38;;
24787;SDS011;12883;52.662;5.196;2023-06-22T13:10:55;7.50;;;7.50;;
24787;SDS011;12883;52.662;5.196;2023-06-22T13:13:23;6.97;;;6.97;;
24787;SDS011;12883;52.662;5.196;2023-06-22T13:15:59;7.05;;;7.05;;
24787;SDS011;12883;52.662;5.196;2023-06-22T13:18:24;8.05;;;8.05;;
24787;SDS011;12883;52.662;5.196;2023-06-22T13:20:49;8.18;;;8.18;;
24787;SDS011;12883;52.662;5.196;2023-06-22T13:23:15;6.65;;;6.65;;
24787;SDS011;12883;52.662;5.196;2023-06-22T13:25:40;6.93;;;6.93;;
24787;SDS011;12883;52.662;5.196;2023-06-22T13:28:05;7.75;;;7.75;;
24787;SDS011;12883;52.662;5.196;2023-06-22T13:30:31;7.95;;;7.95;;
24787;SDS011;12883;52.662;5.196;2023-06-22T13:32:57;8.55;;;8.55;;
24787;SDS011;12883;52.662;5.196;2023-06-22T13:35:22;8.30;;;8.30;;
24787;SDS011;12883;52.662;5.196;2023-06-22T13:37:47;7.72;;;7.72;;
24787;SDS011;12883;52.662;5.196;2023-06-22T13:40:13;7.85;;;7.85;;
24787;SDS011;12883;52.662;5.196;2023-06-22T13:42:38;7.05;;;7.05;;
24787;SDS011;12883;52.662;5.196;2023-06-22T13:45:04;7.15;;;7.15;;
24787;SDS011;12883;52.662;5.196;2023-06-22T13:47:30;6.65;;;6.65;;
24787;SDS011;12883;52.662;5.196;2023-06-22T13:49:55;6.47;;;6.47;;
24787;SDS011;12883;52.662;5.196;2023-06-22T13:52:22;6.20;;;6.20;;
24787;SDS011;12883;52.662;5.196;2023-06-22T13:54:48;6.30;;;6.30;;
24787;SDS011;12883;52.662;5.196;2023-06-22T13:57:13;6.45;;;6.45;;
24787;SDS011;12883;52.662;5.196;2023-06-22T13:59:38;6.63;;;6.63;;
24787;SDS011;12883;52.662;5.196;2023-06-22T14:02:04;6.80;;;6.80;;
24787;SDS011;12883;52.662;5.196;2023-06-22T14:04:29;5.20;;;5.20;;
24787;SDS011;12883;52.662;5.196;2023-06-22T14:06:55;6.38;;;6.38;;
24787;SDS011;12883;52.662;5.196;2023-06-22T14:09:21;6.13;;;6.13;;
24787;SDS011;12883;52.662;5.196;2023-06-22T14:11:46;5.78;;;5.78;;
24787;SDS011;12883;52.662;5.196;2023-06-22T14:14:11;5.85;;;5.85;;
24787;SDS011;12883;52.662;5.196;2023-06-22T14:16:37;6.85;;;6.85;;
24787;SDS011;12883;52.662;5.196;2023-06-22T14:19:02;6.07;;;6.07;;
24787;SDS011;12883;52.662;5.196;2023-06-22T14:21:27;6.53;;;6.53;;
24787;SDS011;12883;52.662;5.196;2023-06-22T14:23:53;6.03;;;6.03;;